createdAt,value
2023-04-23T00:00:42.362Z,96816.13
2023-04-23T00:03:10.780Z,96823.09
2023-04-23T00:05:38.420Z,96811.63
2023-04-23T00:08:07.261Z,96820.97
2023-04-23T00:10:34.453Z,96814.97
2023-04-23T00:13:02.018Z,96810.84
2023-04-23T00:15:29.477Z,96818.47
2023-04-23T00:17:57.851Z,96808.25
2023-04-23T00:20:25.029Z,96802.97
2023-04-23T00:22:52.134Z,96802.63
2023-04-23T00:25:19.243Z,96803.94
2023-04-23T00:27:48.059Z,96801.53
2023-04-23T00:30:15.269Z,96798.13
2023-04-23T00:32:42.993Z,96795.09
2023-04-23T00:35:10.432Z,96801.19
2023-04-23T00:37:38.949Z,96801.41
2023-04-23T00:40:08.226Z,96794.91
2023-04-23T00:42:36.511Z,96790.38
2023-04-23T00:45:04.150Z,96790.03
2023-04-23T00:47:33.893Z,96794.03
2023-04-23T00:50:02.057Z,96799.94
2023-04-23T00:52:29.591Z,96790.16
2023-04-23T00:54:58.995Z,96788.72
2023-04-23T00:57:27.061Z,96787.63
2023-04-23T00:59:58.565Z,96795.94
2023-04-23T01:02:29.035Z,96785.16
2023-04-23T01:04:56.500Z,96782.72
2023-04-23T01:07:24.173Z,96785.22
2023-04-23T01:09:52.422Z,96784.72
2023-04-23T01:12:19.974Z,96788.53
2023-04-23T01:14:47.159Z,96782.66
2023-04-23T01:17:14.808Z,96783.97
2023-04-23T01:19:42.068Z,96780.97
2023-04-23T01:22:14.506Z,96781.56
2023-04-23T01:24:43.066Z,96774.56
2023-04-23T01:27:11.910Z,96779.06
2023-04-23T01:29:39.806Z,96780.63
2023-04-23T01:32:08.719Z,96790.09
2023-04-23T01:34:39.115Z,96780.28
2023-04-23T01:37:07.573Z,96780.50
2023-04-23T01:39:34.972Z,96792.81
2023-04-23T01:42:04.266Z,96785.28
2023-04-23T01:44:31.304Z,96790.59
2023-04-23T01:46:59.377Z,96796.25
2023-04-23T01:49:27.650Z,96782.13
2023-04-23T01:51:57.877Z,96788.78
2023-04-23T01:54:25.089Z,96798.63
2023-04-23T01:56:55.023Z,96799.75
2023-04-23T01:59:24.504Z,96801.66
2023-04-23T02:01:51.891Z,96803.94
2023-04-23T02:04:19.256Z,96803.56
2023-04-23T02:06:49.554Z,96804.16
2023-04-23T02:09:17.365Z,96810.38
2023-04-23T02:11:44.368Z,96799.63
2023-04-23T02:14:12.143Z,96806.28
2023-04-23T02:16:39.745Z,96804.75
2023-04-23T02:19:07.389Z,96804.75
2023-04-23T02:21:35.587Z,96809.28
2023-04-23T02:24:05.564Z,96801.72
2023-04-23T02:26:34.127Z,96808.91
2023-04-23T02:29:03.053Z,96807.59
2023-04-23T02:31:30.106Z,96805.50
2023-04-23T02:33:58.392Z,96791.91
2023-04-23T02:36:25.415Z,96797.19
2023-04-23T02:38:52.605Z,96798.34
2023-04-23T02:41:20.288Z,96790.59
2023-04-23T02:43:47.260Z,96795.69
2023-04-23T02:46:14.266Z,96789.47
2023-04-23T02:48:42.996Z,96809.66
2023-04-23T02:51:12.803Z,96803.03
2023-04-23T02:53:39.923Z,96808.72
2023-04-23T02:56:08.122Z,96812.13
2023-04-23T02:58:35.570Z,96804.75
2023-04-23T03:01:04.294Z,96806.25
2023-04-23T03:03:32.884Z,96799.84
2023-04-23T03:06:03.251Z,96802.69
2023-04-23T03:08:30.449Z,96807.97
2023-04-23T03:10:58.878Z,96799.69
2023-04-23T03:13:28.498Z,96810.84
2023-04-23T03:15:56.372Z,96818.75
2023-04-23T03:18:23.614Z,96814.97
2023-04-23T03:20:53.342Z,96817.06
2023-04-23T03:23:20.478Z,96815.72
2023-04-23T03:25:48.351Z,96823.09
2023-04-23T03:28:15.641Z,96827.84
2023-04-23T03:30:43.220Z,96830.09
2023-04-23T03:33:10.604Z,96835.59
2023-04-23T03:35:37.968Z,96829.16
2023-04-23T03:38:11.316Z,96845.19
2023-04-23T03:40:38.531Z,96831.59
2023-04-23T03:43:08.157Z,96825.38
2023-04-23T03:46:07.370Z,96839.91
2023-04-23T03:48:38.568Z,96835.75
2023-04-23T03:51:10.567Z,96823.31
2023-04-23T03:53:42.735Z,96836.88
2023-04-23T03:56:29.135Z,96846.13
2023-04-23T03:59:08.533Z,96842.94
2023-04-23T04:01:36.609Z,96845.56
2023-04-23T04:04:03.922Z,96853.13
2023-04-23T04:06:33.433Z,96844.78
2023-04-23T04:09:00.999Z,96846.28
2023-04-23T04:11:28.975Z,96839.31
2023-04-23T04:13:56.141Z,96854.97
2023-04-23T04:16:23.101Z,96857.06
2023-04-23T04:18:51.493Z,96852.13
2023-04-23T04:21:19.334Z,96852.69
2023-04-23T04:23:46.685Z,96858.91
2023-04-23T04:26:14.280Z,96863.06
2023-04-23T04:28:41.410Z,96859.28
2023-04-23T04:31:09.638Z,96858.50
2023-04-23T04:33:40.020Z,96868.13
2023-04-23T04:36:09.754Z,96864.75
2023-04-23T04:38:39.608Z,96855.88
2023-04-23T04:41:08.080Z,96864.38
2023-04-23T04:43:35.189Z,96861.91
2023-04-23T04:46:02.251Z,96865.88
2023-04-23T04:48:29.238Z,96870.41
2023-04-23T04:50:56.696Z,96872.81
2023-04-23T04:53:23.870Z,96860.16
2023-04-23T04:55:50.908Z,96872.97
2023-04-23T04:58:17.851Z,96869.97
2023-04-23T05:00:45.168Z,96873.16
2023-04-23T05:03:14.270Z,96876.75
2023-04-23T05:05:41.647Z,96878.03
2023-04-23T05:08:09.083Z,96870.28
2023-04-23T05:10:36.689Z,96880.09
2023-04-23T05:13:03.836Z,96877.22
2023-04-23T05:15:33.446Z,96886.28
2023-04-23T05:18:00.514Z,96889.84
2023-04-23T05:20:27.490Z,96881.53
2023-04-23T05:22:56.606Z,96886.78
2023-04-23T05:25:23.572Z,96874.34
2023-04-23T05:27:50.761Z,96883.75
2023-04-23T05:30:19.001Z,96871.50
2023-04-23T05:32:46.357Z,96874.09
2023-04-23T05:35:14.434Z,96888.06
2023-04-23T05:37:41.452Z,96881.66
2023-04-23T05:40:09.745Z,96882.59
2023-04-23T05:42:37.571Z,96883.38
2023-04-23T05:45:08.023Z,96884.84
2023-04-23T05:47:36.724Z,96872.81
2023-04-23T05:50:03.806Z,96883.34
2023-04-23T05:52:35.947Z,96885.63
2023-04-23T05:55:03.507Z,96883.88
2023-04-23T05:57:30.521Z,96887.63
2023-04-23T05:59:57.503Z,96887.19
2023-04-23T06:02:25.809Z,96879.66
2023-04-23T06:04:54.781Z,96886.25
2023-04-23T06:07:23.026Z,96891.53
2023-04-23T06:09:51.044Z,96893.47
2023-04-23T06:12:19.590Z,96891.97
2023-04-23T06:14:46.615Z,96898.72
2023-04-23T06:17:17.009Z,96903.06
2023-04-23T06:19:45.561Z,96896.03
2023-04-23T06:22:12.612Z,96893.34
2023-04-23T06:24:40.826Z,96897.50
2023-04-23T06:27:08.377Z,96901.63
2023-04-23T06:29:43.145Z,96903.84
2023-04-23T06:32:19.041Z,96901.78
2023-04-23T06:34:59.999Z,96895.56
2023-04-23T06:37:29.952Z,96906.88
2023-04-23T06:39:57.365Z,96905.59
2023-04-23T06:42:25.623Z,96895.38
2023-04-23T06:45:28.194Z,96897.13
2023-04-23T06:47:55.280Z,96911.63
2023-04-23T06:50:22.348Z,96909.19
2023-04-23T06:52:49.569Z,96911.44
2023-04-23T06:55:16.588Z,96917.84
2023-04-23T06:57:44.258Z,96920.13
2023-04-23T07:00:12.122Z,96920.69
2023-04-23T07:02:41.964Z,96918.84
2023-04-23T07:05:10.722Z,96918.25
2023-04-23T07:07:38.708Z,96922.84
2023-04-23T07:10:06.351Z,96913.03
2023-04-23T07:12:36.063Z,96920.59
2023-04-23T07:15:04.206Z,96923.25
2023-04-23T07:17:31.576Z,96922.28
2023-04-23T07:19:58.622Z,96922.28
2023-04-23T07:22:27.368Z,96922.28
2023-04-23T07:24:56.103Z,96914.56
2023-04-23T07:27:25.059Z,96928.91
2023-04-23T07:29:52.230Z,96918.25
2023-04-23T07:32:19.709Z,96922.47
2023-04-23T07:34:48.002Z,96919.69
2023-04-23T07:37:16.223Z,96924.28
2023-04-23T07:39:44.255Z,96926.75
2023-04-23T07:42:12.810Z,96937.31
2023-04-23T07:44:39.853Z,96934.69
2023-04-23T07:47:06.786Z,96926.59
2023-04-23T07:49:34.233Z,96942.97
2023-04-23T07:52:02.555Z,96937.31
2023-04-23T07:54:29.660Z,96936.97
2023-04-23T07:56:57.638Z,96928.53
2023-04-23T07:59:24.870Z,96937.78
2023-04-23T08:01:52.635Z,96941.56
2023-04-23T08:04:19.792Z,96942.53
2023-04-23T08:06:47.085Z,96941.22
2023-04-23T08:09:14.222Z,96926.09
2023-04-23T08:11:42.130Z,96937.78
2023-04-23T08:14:09.211Z,96941.94
2023-04-23T08:16:38.725Z,96945.53
2023-04-23T08:19:06.637Z,96950.88
2023-04-23T08:21:35.630Z,96939.41
2023-04-23T08:24:03.559Z,96928.88
2023-04-23T08:26:32.014Z,96938.34
2023-04-23T08:29:01.049Z,96928.94
2023-04-23T08:31:28.586Z,96934.59
2023-04-23T08:33:57.772Z,96933.13
2023-04-23T08:36:26.097Z,96924.47
2023-04-23T08:38:53.066Z,96923.31
2023-04-23T08:41:24.526Z,96923.28
2023-04-23T08:43:52.924Z,96925.53
2023-04-23T08:46:20.268Z,96921.34
2023-04-23T08:48:49.564Z,96916.75
2023-04-23T08:51:20.386Z,96930.25
2023-04-23T08:53:53.156Z,96932.25
2023-04-23T08:56:22.953Z,96929.91
2023-04-23T08:58:51.081Z,96923.63
2023-04-23T09:01:19.328Z,96935.66
2023-04-23T09:03:48.223Z,96933.81
2023-04-23T09:06:15.782Z,96936.84
2023-04-23T09:08:45.866Z,96932.19
2023-04-23T09:11:12.932Z,96923.38
2023-04-23T09:13:41.943Z,96942.66
2023-04-23T09:16:11.461Z,96933.22
2023-04-23T09:18:39.057Z,96935.50
2023-04-23T09:21:07.179Z,96921.56
2023-04-23T09:23:34.973Z,96926.69
2023-04-23T09:26:06.639Z,96924.28
2023-04-23T09:28:37.655Z,96915.53
2023-04-23T09:31:08.136Z,96907.81
2023-04-23T09:33:36.727Z,96905.34
2023-04-23T09:36:15.940Z,96904.78
2023-04-23T09:38:43.660Z,96904.16
2023-04-23T09:41:28.676Z,96908.34
2023-04-23T09:43:56.668Z,96901.00
2023-04-23T09:46:35.123Z,96886.94
2023-04-23T09:49:10.685Z,96886.44
2023-04-23T09:51:39.712Z,96883.03
2023-04-23T09:54:16.857Z,96886.44
2023-04-23T09:56:45.174Z,96895.81
2023-04-23T09:59:46.895Z,96888.16
2023-04-23T10:02:15.951Z,96887.41
2023-04-23T10:04:43.400Z,96892.50
2023-04-23T10:07:19.730Z,96894.94
2023-04-23T10:09:47.921Z,96894.38
2023-04-23T10:14:47.167Z,96879.72
2023-04-23T10:17:14.229Z,96882.75
2023-04-23T10:19:44.379Z,96879.72
2023-04-23T10:22:19.571Z,96878.22
2023-04-23T10:24:53.385Z,96877.81
2023-04-23T10:27:33.294Z,96872.31
2023-04-23T10:30:12.334Z,96871.59
2023-04-23T10:32:40.272Z,96872.66
2023-04-23T10:35:09.071Z,96873.22
2023-04-23T10:37:37.349Z,96862.47
2023-04-23T10:40:12.738Z,96870.91
2023-04-23T10:42:44.870Z,96857.13
2023-04-23T10:45:25.160Z,96863.88
2023-04-23T10:47:57.431Z,96855.28
2023-04-23T10:50:31.475Z,96854.34
2023-04-23T10:52:59.033Z,96854.44
2023-04-23T10:55:34.453Z,96851.06
2023-04-23T10:58:08.345Z,96845.69
2023-04-23T11:00:47.021Z,96833.50
2023-04-23T11:03:32.779Z,96843.34
2023-04-23T11:06:05.071Z,96817.88
2023-04-23T11:08:33.024Z,96835.31
2023-04-23T11:11:06.769Z,96838.38
2023-04-23T11:13:34.411Z,96826.53
2023-04-23T11:16:24.431Z,96838.78
2023-04-23T11:19:03.951Z,96834.88
2023-04-23T11:22:04.606Z,96834.47
2023-04-23T11:24:42.953Z,96832.47
2023-04-23T11:27:13.297Z,96833.34
2023-04-23T11:29:42.349Z,96819.31
2023-04-23T11:32:11.101Z,96827.78
2023-04-23T11:34:47.287Z,96817.00
2023-04-23T11:37:15.658Z,96818.28
2023-04-23T11:39:44.691Z,96814.44
2023-04-23T11:42:13.375Z,96806.59
2023-04-23T11:44:46.447Z,96797.53
2023-04-23T11:47:16.725Z,96796.59
2023-04-23T11:49:45.832Z,96801.50
2023-04-23T11:52:15.681Z,96799.53
2023-04-23T11:54:43.192Z,96797.78
2023-04-23T11:57:12.861Z,96791.31
2023-04-23T11:59:40.418Z,96788.78
2023-04-23T12:02:07.829Z,96785.69
2023-04-23T12:04:34.982Z,96770.84
2023-04-23T12:07:05.905Z,96775.69
2023-04-23T12:09:40.565Z,96784.94
2023-04-23T12:12:07.721Z,96777.75
2023-04-23T12:14:34.759Z,96776.13
2023-04-23T12:17:11.335Z,96774.91
2023-04-23T12:19:40.820Z,96772.03
2023-04-23T12:22:08.796Z,96780.97
2023-04-23T12:24:52.636Z,96785.41
2023-04-23T12:27:25.080Z,96774.03
2023-04-23T12:30:04.204Z,96772.25
2023-04-23T12:32:34.626Z,96777.22
2023-04-23T12:35:01.688Z,96767.47
2023-04-23T12:37:31.595Z,96759.28
2023-04-23T12:39:59.852Z,96753.06
2023-04-23T12:42:26.885Z,96751.69
2023-04-23T12:44:56.195Z,96769.09
2023-04-23T12:47:23.668Z,96758.81
2023-04-23T12:49:54.097Z,96756.13
2023-04-23T12:52:21.809Z,96756.56
2023-04-23T12:54:53.133Z,96758.94
2023-04-23T12:57:23.586Z,96741.91
2023-04-23T12:59:51.256Z,96753.28
2023-04-23T13:02:18.481Z,96733.50
2023-04-23T13:04:45.911Z,96749.06
2023-04-23T13:07:13.587Z,96729.34
2023-04-23T13:09:40.773Z,96738.53
2023-04-23T13:12:08.138Z,96725.47
2023-04-23T13:14:35.121Z,96726.25
2023-04-23T13:17:02.037Z,96723.25
2023-04-23T13:19:29.482Z,96721.16
2023-04-23T13:21:58.093Z,96702.06
2023-04-23T13:24:25.164Z,96694.03
2023-04-23T13:26:52.192Z,96695.72
2023-04-23T13:29:19.301Z,96686.78
2023-04-23T13:31:46.567Z,96676.50
2023-04-23T13:34:13.614Z,96678.72
2023-04-23T13:36:43.553Z,96688.03
2023-04-23T13:39:15.177Z,96673.81
2023-04-23T13:41:43.657Z,96663.84
2023-04-23T13:44:10.915Z,96661.31
2023-04-23T13:46:37.881Z,96655.88
2023-04-23T13:49:06.033Z,96650.22
2023-04-23T13:51:35.843Z,96638.78
2023-04-23T13:54:03.792Z,96648.25
2023-04-23T13:56:31.943Z,96638.31
2023-04-23T13:59:18.132Z,96647.28
2023-04-23T14:01:50.180Z,96637.78
2023-04-23T14:04:19.023Z,96627.19
2023-04-23T14:06:46.213Z,96625.56
2023-04-23T14:09:13.205Z,96623.56
2023-04-23T14:11:41.816Z,96615.56
2023-04-23T14:14:09.065Z,96626.28
2023-04-23T14:16:36.232Z,96631.44
2023-04-23T14:19:03.452Z,96615.84
2023-04-23T14:21:31.100Z,96619.06
2023-04-23T14:24:18.232Z,96618.72
2023-04-23T14:26:49.208Z,96611.16
2023-04-23T14:29:23.245Z,96615.03
2023-04-23T14:31:52.303Z,96613.44
2023-04-23T14:34:19.238Z,96609.53
2023-04-23T14:36:49.532Z,96602.44
2023-04-23T14:39:17.346Z,96586.19
2023-04-23T14:41:44.981Z,96584.34
2023-04-23T14:44:11.983Z,96571.16
2023-04-23T14:46:40.218Z,96574.41
2023-04-23T14:49:08.306Z,96576.31
2023-04-23T14:51:35.268Z,96575.81
2023-04-23T14:54:02.319Z,96574.69
2023-04-23T14:56:30.539Z,96573.63
2023-04-23T14:58:57.652Z,96574.03
2023-04-23T15:01:24.671Z,96575.72
2023-04-23T15:03:54.343Z,96574.44
2023-04-23T15:06:21.587Z,96568.19
2023-04-23T15:08:51.306Z,96568.19
2023-04-23T15:11:18.308Z,96572.06
2023-04-23T15:13:56.281Z,96562.41
2023-04-23T15:19:12.131Z,96555.69
2023-04-23T15:21:39.457Z,96543.03
2023-04-23T15:24:08.105Z,96545.53
2023-04-23T15:26:37.688Z,96545.13
2023-04-23T15:29:09.257Z,96538.28
2023-04-23T15:31:37.310Z,96531.19
2023-04-23T15:34:06.424Z,96538.72
2023-04-23T15:36:35.331Z,96540.72
2023-04-23T15:39:02.374Z,96542.22
2023-04-23T15:41:30.945Z,96529.84
2023-04-23T15:43:58.596Z,96530.38
2023-04-23T15:46:25.584Z,96516.25
2023-04-23T15:48:52.488Z,96518.13
2023-04-23T15:51:19.770Z,96519.75
2023-04-23T15:53:46.759Z,96518.25
2023-04-23T15:56:13.807Z,96515.41
2023-04-23T15:58:41.139Z,96510.94
2023-04-23T16:01:10.115Z,96506.31
2023-04-23T16:03:37.352Z,96505.03
2023-04-23T16:06:05.351Z,96510.47
2023-04-23T16:08:32.973Z,96513.25
2023-04-23T16:11:00.001Z,96512.13
2023-04-23T16:13:29.161Z,96500.16
2023-04-23T16:15:56.218Z,96500.34
2023-04-23T16:18:23.213Z,96485.41
2023-04-23T16:20:50.254Z,96501.91
2023-04-23T16:23:17.364Z,96483.91
2023-04-23T16:25:45.078Z,96488.09
2023-04-23T16:28:14.096Z,96483.47
2023-04-23T16:30:41.119Z,96470.63
2023-04-23T16:33:09.601Z,96468.38
2023-04-23T16:35:36.869Z,96469.03
2023-04-23T16:38:04.108Z,96466.66
2023-04-23T16:40:32.225Z,96458.28
2023-04-23T16:42:59.714Z,96463.56
2023-04-23T16:45:27.554Z,96470.38
2023-04-23T16:47:54.793Z,96452.13
2023-04-23T16:50:21.714Z,96454.56
2023-04-23T16:52:48.694Z,96455.75
2023-04-23T16:55:15.793Z,96458.47
2023-04-23T16:57:43.258Z,96462.22
2023-04-23T17:00:12.915Z,96452.22
2023-04-23T17:02:41.689Z,96450.41
2023-04-23T17:05:10.056Z,96451.13
2023-04-23T17:07:37.244Z,96436.75
2023-04-23T17:10:04.555Z,96437.97
2023-04-23T17:12:31.653Z,96436.59
2023-04-23T17:14:58.642Z,96432.28
2023-04-23T17:17:27.619Z,96433.75
2023-04-23T17:19:54.581Z,96436.19
2023-04-23T17:22:21.554Z,96426.88
2023-04-23T17:24:48.944Z,96430.94
2023-04-23T17:27:15.856Z,96430.94
2023-04-23T17:29:43.424Z,96427.81
2023-04-23T17:32:10.900Z,96418.25
2023-04-23T17:34:37.872Z,96413.00
2023-04-23T17:37:04.996Z,96408.50
2023-04-23T17:39:32.228Z,96407.63
2023-04-23T17:41:59.483Z,96410.47
2023-04-23T17:44:26.421Z,96411.69
2023-04-23T17:46:55.296Z,96404.94
2023-04-23T17:49:23.454Z,96401.66
2023-04-23T17:51:50.596Z,96411.53
2023-04-23T17:54:18.062Z,96405.56
2023-04-23T17:56:45.132Z,96406.03
2023-04-23T17:59:12.971Z,96406.50
2023-04-23T18:01:40.034Z,96404.69
2023-04-23T18:04:07.155Z,96406.34
2023-04-23T18:06:35.872Z,96399.59
2023-04-23T18:09:03.209Z,96406.22
2023-04-23T18:11:30.199Z,96408.31
2023-04-23T18:13:57.600Z,96406.66
2023-04-23T18:16:24.929Z,96405.75
2023-04-23T18:18:52.724Z,96404.88
2023-04-23T18:21:19.982Z,96395.88
2023-04-23T18:23:47.741Z,96402.50
2023-04-23T18:26:14.869Z,96398.72
2023-04-23T18:28:41.870Z,96405.34
2023-04-23T18:31:08.964Z,96396.34
2023-04-23T18:34:02.610Z,96391.53
2023-04-23T18:36:33.594Z,96393.47
2023-04-23T18:39:01.071Z,96390.50
2023-04-23T18:41:31.292Z,96385.25
2023-04-23T18:44:00.338Z,96395.41
2023-04-23T18:46:30.880Z,96394.97
2023-04-23T18:49:01.480Z,96387.34
2023-04-23T18:51:38.432Z,96399.00
2023-04-23T18:54:06.161Z,96398.25
2023-04-23T18:56:33.378Z,96401.81
2023-04-23T18:59:00.382Z,96399.44
2023-04-23T19:01:28.646Z,96398.38
2023-04-23T19:03:57.561Z,96385.94
2023-04-23T19:06:24.755Z,96397.72
2023-04-23T19:08:51.946Z,96401.63
2023-04-23T19:11:18.867Z,96404.88
2023-04-23T19:13:46.552Z,96393.81
2023-04-23T19:16:16.488Z,96392.31
2023-04-23T19:18:43.735Z,96388.56
2023-04-23T19:21:11.523Z,96387.50
2023-04-23T19:23:38.662Z,96379.69
2023-04-23T19:26:05.969Z,96380.84
2023-04-23T19:28:32.889Z,96367.38
2023-04-23T19:30:59.843Z,96387.09
2023-04-23T19:33:28.799Z,96383.78
2023-04-23T19:35:59.602Z,96379.28
2023-04-23T19:38:27.384Z,96383.16
2023-04-23T19:40:54.454Z,96372.06
2023-04-23T19:43:23.156Z,96374.75
2023-04-23T19:45:50.778Z,96380.38
2023-04-23T19:48:17.658Z,96385.00
2023-04-23T19:50:48.379Z,96368.41
2023-04-23T19:53:16.012Z,96371.38
2023-04-23T19:55:43.971Z,96375.59
2023-04-23T19:58:11.064Z,96375.59
2023-04-23T20:00:41.661Z,96384.25
2023-04-23T20:03:09.266Z,96377.81
2023-04-23T20:05:36.500Z,96378.56
2023-04-23T20:08:07.255Z,96372.56
2023-04-23T20:10:34.719Z,96385.41
2023-04-23T20:13:03.848Z,96392.44
2023-04-23T20:15:33.203Z,96390.59
2023-04-23T20:18:01.054Z,96414.31
2023-04-23T20:20:28.057Z,96459.97
2023-04-23T20:22:55.674Z,96491.09
2023-04-23T20:25:25.503Z,96506.97
2023-04-23T20:27:56.003Z,96512.34
2023-04-23T20:30:22.978Z,96505.41
2023-04-23T20:32:50.006Z,96510.94
2023-04-23T20:35:17.371Z,96510.81
2023-04-23T20:37:44.415Z,96511.41
2023-04-23T20:40:13.029Z,96505.25
2023-04-23T20:42:40.049Z,96511.06
2023-04-23T20:45:08.397Z,96512.78
2023-04-23T20:47:37.116Z,96508.44
2023-04-23T20:50:04.705Z,96514.84
2023-04-23T20:52:31.744Z,96513.53
2023-04-23T20:54:58.647Z,96510.50
2023-04-23T20:57:26.593Z,96501.84
2023-04-23T20:59:54.934Z,96498.47
2023-04-23T21:02:21.986Z,96503.91
2023-04-23T21:04:49.565Z,96500.69
2023-04-23T21:07:17.825Z,96495.44
2023-04-23T21:09:45.865Z,96499.97
2023-04-23T21:12:13.284Z,96494.72
2023-04-23T21:14:40.251Z,96498.66
2023-04-23T21:17:07.599Z,96490.19
2023-04-23T21:19:34.657Z,96487.53
2023-04-23T21:22:02.141Z,96481.13
2023-04-23T21:24:29.302Z,96471.72
2023-04-23T21:26:57.685Z,96484.13
2023-04-23T21:29:26.958Z,96484.50
2023-04-23T21:31:54.025Z,96488.06
2023-04-23T21:34:21.831Z,96487.13
2023-04-23T21:36:49.921Z,96485.97
2023-04-23T21:39:16.943Z,96472.78
2023-04-23T21:41:45.091Z,96477.69
2023-04-23T21:44:12.132Z,96488.06
2023-04-23T21:46:43.476Z,96485.78
2023-04-23T21:49:11.605Z,96487.13
2023-04-23T21:51:38.750Z,96488.63
2023-04-23T21:54:07.692Z,96486.94
2023-04-23T21:56:37.910Z,96478.09
2023-04-23T21:59:05.251Z,96480.72
2023-04-23T22:01:34.291Z,96469.06
2023-04-23T22:04:04.870Z,96473.56
2023-04-23T22:06:34.560Z,96463.41
2023-04-23T22:09:08.612Z,96471.69
2023-04-23T22:11:35.712Z,96475.09
2023-04-23T22:14:02.769Z,96478.91
2023-04-23T22:16:30.494Z,96474.56
2023-04-23T22:18:57.758Z,96473.25
2023-04-23T22:21:25.330Z,96475.88
2023-04-23T22:23:53.764Z,96467.59
2023-04-23T22:26:22.489Z,96472.88
2023-04-23T22:28:49.499Z,96473.63
2023-04-23T22:31:17.587Z,96463.47
2023-04-23T22:33:46.706Z,96459.72
2023-04-23T22:36:14.693Z,96457.97
2023-04-23T22:38:41.885Z,96461.56
2023-04-23T22:41:08.985Z,96459.72
2023-04-23T22:43:35.983Z,96453.84
2023-04-23T22:46:03.253Z,96452.53
2023-04-23T22:48:31.145Z,96462.31
2023-04-23T22:50:58.158Z,96456.28
2023-04-23T22:53:25.590Z,96459.13
2023-04-23T22:55:53.081Z,96461.56
2023-04-23T22:58:21.145Z,96460.81
2023-04-23T23:00:48.132Z,96451.03
2023-04-23T23:03:16.850Z,96468.72
2023-04-23T23:05:44.332Z,96457.44
2023-04-23T23:08:12.333Z,96455.91
2023-04-23T23:10:39.505Z,96450.28
2023-04-23T23:13:07.700Z,96442.75
2023-04-23T23:15:35.692Z,96443.88
2023-04-23T23:18:03.305Z,96454.81
2023-04-23T23:20:30.499Z,96451.03
2023-04-23T23:22:58.012Z,96444.09
2023-04-23T23:25:25.216Z,96453.69
2023-04-23T23:27:56.838Z,96450.31
2023-04-23T23:30:24.256Z,96450.31
2023-04-23T23:32:51.292Z,96449.94
2023-04-23T23:35:18.416Z,96454.25
2023-04-23T23:37:45.965Z,96453.09
2023-04-23T23:40:13.026Z,96456.31
2023-04-23T23:42:40.081Z,96449.53
2023-04-23T23:45:07.890Z,96446.16
2023-04-23T23:47:37.412Z,96462.13
2023-04-23T23:50:06.471Z,96457.78
2023-04-23T23:52:33.749Z,96458.91
2023-04-23T23:55:01.824Z,96460.06
2023-04-23T23:57:32.542Z,96452.69
